createdAt,value
2018-06-05T00:01:51.857Z,33.40
2018-06-05T00:04:20.721Z,33.30
2018-06-05T00:06:49.132Z,33.28
2018-06-05T00:09:19.846Z,33.07
2018-06-05T00:11:50.019Z,33.05
2018-06-05T00:14:18.749Z,32.94
2018-06-05T00:16:47.179Z,33.01
2018-06-05T00:19:16.188Z,32.98
2018-06-05T00:21:44.629Z,33.00
2018-06-05T00:24:13.038Z,32.78
2018-06-05T00:26:42.021Z,32.82
2018-06-05T00:29:10.750Z,33.12
2018-06-05T00:31:39.357Z,33.09
2018-06-05T00:34:07.925Z,33.08
2018-06-05T00:36:36.342Z,33.12
2018-06-05T00:39:06.819Z,33.21
2018-06-05T00:41:35.233Z,33.10
2018-06-05T00:44:04.031Z,33.49
2018-06-05T00:46:32.453Z,33.20
2018-06-05T00:49:02.473Z,33.58
2018-06-05T00:51:42.065Z,33.55
2018-06-05T00:54:10.759Z,33.52
2018-06-05T00:56:39.308Z,33.69
2018-06-05T00:59:08.179Z,33.71
2018-06-05T01:01:36.871Z,33.82
2018-06-05T01:04:05.282Z,33.87
2018-06-05T01:06:33.845Z,33.91
2018-06-05T01:09:02.477Z,34.21
2018-06-05T01:11:31.130Z,33.92
2018-06-05T01:13:59.549Z,34.11
2018-06-05T01:16:28.538Z,34.29
2018-06-05T01:18:57.056Z,34.43
2018-06-05T01:21:25.493Z,34.47
2018-06-05T01:23:54.362Z,34.45
2018-06-05T01:26:22.770Z,34.69
2018-06-05T01:28:51.195Z,34.74
2018-06-05T01:31:20.161Z,35.00
2018-06-05T01:33:48.579Z,34.79
2018-06-05T01:36:16.981Z,35.11
2018-06-05T01:38:47.672Z,35.17
2018-06-05T01:41:16.073Z,35.38
2018-06-05T01:43:44.782Z,35.19
2018-06-05T01:46:13.662Z,35.30
2018-06-05T01:48:42.082Z,35.26
2018-06-05T01:51:10.509Z,35.44
2018-06-05T01:53:39.441Z,35.36
2018-06-05T01:56:07.922Z,35.66
2018-06-05T01:58:36.337Z,35.93
2018-06-05T02:01:05.055Z,35.93
2018-06-05T02:03:33.554Z,35.81
2018-06-05T02:06:01.997Z,35.91
2018-06-05T02:08:30.578Z,35.88
2018-06-05T02:11:00.536Z,35.80
2018-06-05T02:13:30.365Z,35.76
2018-06-05T02:15:59.029Z,35.87
2018-06-05T02:18:27.449Z,36.03
2018-06-05T02:20:55.897Z,36.11
2018-06-05T02:23:24.497Z,36.51
2018-06-05T02:25:52.935Z,36.59
2018-06-05T02:28:21.353Z,36.82
2018-06-05T02:30:50.500Z,37.20
2018-06-05T02:33:19.125Z,37.48
2018-06-05T02:35:47.545Z,37.37
2018-06-05T02:38:16.370Z,37.39
2018-06-05T02:40:45.165Z,37.51
2018-06-05T02:43:13.590Z,37.67
2018-06-05T02:45:42.515Z,37.73
2018-06-05T02:48:11.202Z,37.80
2018-06-05T02:50:39.759Z,37.68
2018-06-05T02:53:08.885Z,37.65
2018-06-05T02:55:37.638Z,38.12
2018-06-05T02:58:06.285Z,37.82
2018-06-05T03:00:35.447Z,38.01
2018-06-05T03:03:07.891Z,38.32
2018-06-05T03:05:36.597Z,37.97
2018-06-05T03:08:05.892Z,38.19
2018-06-05T03:10:34.366Z,38.17
2018-06-05T03:13:02.997Z,38.26
2018-06-05T03:15:33.137Z,38.30
2018-06-05T03:18:01.650Z,38.19
2018-06-05T03:20:30.445Z,38.22
2018-06-05T03:22:59.229Z,38.24
2018-06-05T03:25:28.137Z,38.37
2018-06-05T03:27:56.954Z,38.34
2018-06-05T03:30:25.358Z,38.42
2018-06-05T03:32:53.777Z,38.59
2018-06-05T03:35:23.125Z,38.88
2018-06-05T03:37:51.544Z,39.08
2018-06-05T03:40:20.047Z,39.04
2018-06-05T03:42:49.656Z,38.87
2018-06-05T03:45:18.064Z,39.12
2018-06-05T03:47:46.823Z,39.08
2018-06-05T03:50:17.565Z,39.08
2018-06-05T03:52:45.984Z,39.30
2018-06-05T03:55:14.625Z,39.27
2018-06-05T03:57:43.482Z,39.15
2018-06-05T04:00:11.967Z,39.23
2018-06-05T04:02:40.421Z,39.34
2018-06-05T04:05:09.262Z,39.19
2018-06-05T04:07:37.677Z,38.99
2018-06-05T04:10:06.115Z,39.24
2018-06-05T04:12:34.854Z,39.12
2018-06-05T04:15:03.302Z,39.17
2018-06-05T04:17:32.390Z,39.17
2018-06-05T04:20:02.392Z,39.24
2018-06-05T04:22:30.925Z,39.38
2018-06-05T04:24:59.488Z,39.41
2018-06-05T04:27:29.338Z,39.38
2018-06-05T04:29:59.229Z,39.52
2018-06-05T04:32:27.645Z,39.71
2018-06-05T04:34:56.637Z,39.63
2018-06-05T04:37:25.173Z,39.54
2018-06-05T04:39:54.265Z,39.47
2018-06-05T04:42:24.761Z,39.52
2018-06-05T04:44:53.165Z,40.05
2018-06-05T04:47:21.953Z,39.77
2018-06-05T04:49:50.810Z,39.97
2018-06-05T04:52:19.650Z,39.89
2018-06-05T04:54:49.290Z,39.78
2018-06-05T04:57:18.214Z,39.70
2018-06-05T04:59:46.693Z,39.76
2018-06-05T05:02:15.564Z,39.71
2018-06-05T05:04:43.998Z,39.72
2018-06-05T05:07:12.405Z,39.65
2018-06-05T05:09:40.886Z,39.54
2018-06-05T05:12:09.337Z,39.90
2018-06-05T05:14:37.756Z,39.89
2018-06-05T05:17:08.299Z,39.77
2018-06-05T05:19:36.801Z,39.71
2018-06-05T05:22:05.224Z,39.79
2018-06-05T05:24:33.787Z,39.75
2018-06-05T05:27:02.322Z,39.56
2018-06-05T05:29:30.741Z,39.56
2018-06-05T05:32:00.000Z,39.54
2018-06-05T05:34:32.381Z,39.56
2018-06-05T05:37:02.022Z,39.83
2018-06-05T05:39:30.444Z,39.59
2018-06-05T05:41:59.025Z,39.56
2018-06-05T05:44:27.686Z,39.52
2018-06-05T05:46:56.078Z,39.56
2018-06-05T05:49:24.545Z,39.26
2018-06-05T05:51:53.175Z,39.74
2018-06-05T05:54:21.589Z,40.10
2018-06-05T05:56:50.302Z,40.31
2018-06-05T05:59:19.430Z,40.19
2018-06-05T06:01:47.841Z,39.85
2018-06-05T06:04:16.288Z,39.67
2018-06-05T06:06:46.200Z,39.67
2018-06-05T06:09:14.630Z,39.32
2018-06-05T06:11:44.174Z,39.34
2018-06-05T06:14:13.153Z,39.07
2018-06-05T06:16:42.334Z,38.81
2018-06-05T06:19:10.863Z,38.79
2018-06-05T06:21:40.038Z,38.88
2018-06-05T06:24:08.536Z,38.80
2018-06-05T06:26:39.351Z,38.55
2018-06-05T06:29:08.343Z,38.35
2018-06-05T06:31:37.446Z,38.52
2018-06-05T06:34:06.190Z,38.21
2018-06-05T06:36:35.058Z,38.15
2018-06-05T06:39:03.902Z,37.71
2018-06-05T06:41:32.411Z,37.81
2018-06-05T06:44:01.386Z,37.98
2018-06-05T06:46:29.854Z,37.77
2018-06-05T06:48:59.044Z,37.51
2018-06-05T06:51:27.755Z,37.46
2018-06-05T06:53:56.223Z,37.47
2018-06-05T06:56:24.703Z,36.96
2018-06-05T06:58:53.520Z,36.84
2018-06-05T07:01:21.962Z,36.96
2018-06-05T07:03:50.471Z,37.00
2018-06-05T07:06:19.546Z,36.97
2018-06-05T07:08:48.329Z,36.86
2018-06-05T07:11:16.785Z,37.04
2018-06-05T07:13:45.937Z,37.17
2018-06-05T07:16:14.351Z,36.27
2018-06-05T07:18:42.865Z,36.24
2018-06-05T07:21:12.265Z,35.92
2018-06-05T07:23:40.920Z,36.12
2018-06-05T07:26:09.458Z,35.50
2018-06-05T07:28:39.389Z,35.54
2018-06-05T07:31:08.407Z,35.20
2018-06-05T07:33:36.845Z,35.53
2018-06-05T07:36:06.029Z,35.48
2018-06-05T07:38:34.717Z,35.47
2018-06-05T07:41:03.242Z,35.17
2018-06-05T07:43:31.791Z,34.20
2018-06-05T07:46:00.758Z,33.01
2018-06-05T07:48:29.233Z,32.40
2018-06-05T07:50:57.746Z,32.25
2018-06-05T07:53:26.843Z,31.58
2018-06-05T07:55:55.531Z,30.62
2018-06-05T07:58:24.497Z,30.52
2018-06-05T08:00:53.548Z,29.15
2018-06-05T08:03:22.121Z,29.07
2018-06-05T08:05:51.669Z,29.03
2018-06-05T08:08:20.095Z,28.78
2018-06-05T08:10:48.651Z,28.72
2018-06-05T08:13:17.713Z,29.22
2018-06-05T08:15:47.023Z,29.63
2018-06-05T08:18:15.658Z,30.27
2018-06-05T08:20:44.326Z,30.12
2018-06-05T08:23:12.729Z,30.64
2018-06-05T08:25:41.326Z,31.61
2018-06-05T08:28:10.177Z,31.33
2018-06-05T08:30:38.585Z,30.89
2018-06-05T08:33:07.082Z,31.60
2018-06-05T08:35:35.909Z,31.95
2018-06-05T08:38:04.317Z,32.64
2018-06-05T08:40:32.754Z,31.81
2018-06-05T08:43:03.073Z,31.48
2018-06-05T08:45:31.498Z,31.16
2018-06-05T08:47:59.954Z,30.15
2018-06-05T08:50:29.249Z,29.01
2018-06-05T08:52:58.082Z,28.45
2018-06-05T08:55:26.746Z,27.35
2018-06-05T08:57:55.945Z,26.65
2018-06-05T09:00:24.710Z,25.87
2018-06-05T09:02:55.151Z,25.49
2018-06-05T09:05:23.918Z,25.09
2018-06-05T09:07:52.616Z,25.02
2018-06-05T09:10:21.073Z,25.07
2018-06-05T09:12:49.689Z,25.56
2018-06-05T09:15:18.754Z,26.39
2018-06-05T09:17:47.205Z,26.80
2018-06-05T09:20:15.922Z,25.83
2018-06-05T09:22:44.469Z,25.28
2018-06-05T09:25:13.011Z,25.24
2018-06-05T09:27:41.837Z,25.55
2018-06-05T09:30:10.482Z,26.47
2018-06-05T09:32:39.018Z,26.91
2018-06-05T09:35:07.825Z,26.32
2018-06-05T09:37:36.519Z,26.48
2018-06-05T09:40:05.522Z,26.67
2018-06-05T09:42:34.129Z,27.16
2018-06-05T09:45:02.558Z,27.25
2018-06-05T09:47:31.178Z,27.27
2018-06-05T09:49:59.853Z,26.34
2018-06-05T09:52:28.372Z,25.56
2018-06-05T09:54:57.467Z,25.69
2018-06-05T09:57:26.034Z,25.65
2018-06-05T09:59:55.049Z,26.15
2018-06-05T10:02:23.905Z,26.52
2018-06-05T10:04:52.882Z,26.35
2018-06-05T10:07:21.313Z,26.10
2018-06-05T10:09:49.906Z,26.18
2018-06-05T10:12:18.735Z,26.19
2018-06-05T10:14:47.196Z,26.50
2018-06-05T10:17:15.889Z,26.86
2018-06-05T10:19:44.764Z,26.51
2018-06-05T10:22:13.209Z,26.30
2018-06-05T10:24:42.184Z,26.64
2018-06-05T10:27:12.018Z,27.03
2018-06-05T10:29:41.902Z,26.91
2018-06-05T10:32:10.759Z,27.09
2018-06-05T10:34:39.649Z,28.08
2018-06-05T10:37:08.056Z,27.27
2018-06-05T10:39:36.842Z,27.27
2018-06-05T10:42:05.622Z,26.82
2018-06-05T10:44:34.163Z,26.67
2018-06-05T10:47:03.152Z,26.70
2018-06-05T10:49:32.077Z,25.48
2018-06-05T10:52:00.502Z,24.53
2018-06-05T10:54:29.370Z,24.08
2018-06-05T10:56:58.441Z,23.68
2018-06-05T10:59:27.144Z,23.53
2018-06-05T11:01:55.777Z,24.60
2018-06-05T11:04:24.697Z,25.18
2018-06-05T11:06:53.354Z,24.39
2018-06-05T11:09:21.917Z,24.50
2018-06-05T11:11:50.766Z,24.80
2018-06-05T11:14:19.541Z,25.00
2018-06-05T11:16:48.018Z,24.90
2018-06-05T11:19:17.529Z,25.19
2018-06-05T11:21:46.674Z,25.20
2018-06-05T11:24:15.275Z,25.64
2018-06-05T11:26:43.807Z,26.20
2018-06-05T11:29:12.577Z,25.65
2018-06-05T11:31:41.492Z,26.07
2018-06-05T11:34:09.905Z,25.76
2018-06-05T11:36:38.447Z,26.24
2018-06-05T11:39:08.627Z,25.27
2018-06-05T11:41:37.450Z,24.68
2018-06-05T11:44:06.224Z,24.23
2018-06-05T11:46:35.393Z,24.44
2018-06-05T11:49:03.897Z,24.43
2018-06-05T11:51:32.569Z,24.41
2018-06-05T11:54:02.755Z,24.41
2018-06-05T11:56:31.520Z,23.51
2018-06-05T11:58:59.956Z,24.61
2018-06-05T12:01:28.696Z,25.14
2018-06-05T12:03:57.972Z,25.29
2018-06-05T12:06:26.386Z,23.42
2018-06-05T12:08:55.170Z,23.49
2018-06-05T12:11:23.798Z,23.76
2018-06-05T12:13:52.828Z,24.03
2018-06-05T12:16:21.310Z,23.68
2018-06-05T12:18:49.983Z,23.24
2018-06-05T12:21:18.393Z,23.57
2018-06-05T12:23:46.861Z,23.78
2018-06-05T12:26:15.448Z,24.78
2018-06-05T12:28:44.781Z,24.43
2018-06-05T12:31:13.406Z,22.95
2018-06-05T12:33:42.554Z,22.92
2018-06-05T12:36:17.440Z,22.64
2018-06-05T12:38:46.532Z,22.49
2018-06-05T12:41:15.217Z,21.59
2018-06-05T12:43:43.646Z,21.84
2018-06-05T12:46:12.136Z,22.85
2018-06-05T12:48:41.142Z,22.40
2018-06-05T12:51:09.869Z,22.17
2018-06-05T12:53:38.625Z,23.25
2018-06-05T12:56:07.317Z,23.33
2018-06-05T12:58:35.766Z,23.51
2018-06-05T13:01:04.607Z,23.91
2018-06-05T13:03:33.381Z,23.86
2018-06-05T13:06:02.302Z,24.40
2018-06-05T13:08:30.968Z,24.92
2018-06-05T13:10:59.661Z,24.98
2018-06-05T13:13:28.109Z,24.27
2018-06-05T13:15:57.099Z,23.72
2018-06-05T13:18:25.526Z,24.19
2018-06-05T13:20:54.027Z,24.04
2018-06-05T13:23:22.761Z,23.19
2018-06-05T13:25:51.367Z,22.10
2018-06-05T13:28:19.829Z,21.56
2018-06-05T13:30:48.498Z,21.38
2018-06-05T13:33:17.291Z,21.20
2018-06-05T13:35:45.739Z,21.23
2018-06-05T13:38:14.662Z,21.25
2018-06-05T13:40:44.195Z,21.48
2018-06-05T13:43:12.769Z,21.69
2018-06-05T13:45:41.801Z,22.07
2018-06-05T13:48:10.669Z,22.27
2018-06-05T13:50:40.002Z,22.73
2018-06-05T13:53:09.254Z,22.80
2018-06-05T13:55:38.158Z,22.01
2018-06-05T13:58:10.864Z,22.40
2018-06-05T14:00:39.709Z,22.33
2018-06-05T14:03:08.148Z,21.45
2018-06-05T14:05:36.624Z,20.88
2018-06-05T14:08:05.700Z,21.21
2018-06-05T14:10:34.126Z,21.63
2018-06-05T14:13:02.866Z,21.69
2018-06-05T14:15:32.001Z,19.69
2018-06-05T14:18:00.413Z,19.62
2018-06-05T14:20:29.119Z,19.26
2018-06-05T14:22:58.289Z,19.76
2018-06-05T14:25:26.701Z,19.24
2018-06-05T14:27:55.146Z,19.66
2018-06-05T14:30:23.818Z,19.94
2018-06-05T14:32:52.264Z,19.39
2018-06-05T14:35:20.789Z,19.09
2018-06-05T14:37:49.664Z,19.29
2018-06-05T14:40:18.100Z,18.56
2018-06-05T14:42:46.662Z,18.58
2018-06-05T14:45:15.908Z,18.76
2018-06-05T14:47:45.113Z,18.67
2018-06-05T14:50:13.644Z,19.75
2018-06-05T14:52:42.587Z,20.20
2018-06-05T14:55:11.505Z,20.96
2018-06-05T14:57:39.980Z,20.97
2018-06-05T15:00:08.591Z,20.95
2018-06-05T15:02:37.004Z,20.83
2018-06-05T15:05:05.643Z,21.13
2018-06-05T15:07:34.715Z,21.47
2018-06-05T15:10:03.466Z,22.20
2018-06-05T15:12:31.946Z,22.06
2018-06-05T15:15:01.445Z,21.99
2018-06-05T15:17:30.138Z,22.74
2018-06-05T15:19:58.837Z,23.71
2018-06-05T15:22:27.476Z,23.52
2018-06-05T15:24:55.938Z,23.53
2018-06-05T15:27:24.515Z,23.37
2018-06-05T15:29:53.385Z,23.86
2018-06-05T15:32:21.858Z,24.21
2018-06-05T15:34:50.338Z,24.50
2018-06-05T15:37:19.520Z,24.68
2018-06-05T15:39:48.385Z,23.92
2018-06-05T15:42:16.857Z,24.38
2018-06-05T15:44:45.655Z,24.23
2018-06-05T15:47:14.179Z,24.16
2018-06-05T15:49:42.737Z,24.42
2018-06-05T15:52:11.189Z,24.25
2018-06-05T15:54:39.618Z,23.94
2018-06-05T15:57:08.638Z,24.29
2018-06-05T15:59:37.077Z,24.49
2018-06-05T16:02:06.008Z,24.43
2018-06-05T16:04:34.860Z,24.50
2018-06-05T16:07:03.435Z,24.38
2018-06-05T16:09:31.909Z,24.58
2018-06-05T16:12:00.898Z,24.54
2018-06-05T16:14:30.521Z,25.09
2018-06-05T16:16:59.273Z,24.92
2018-06-05T16:19:28.192Z,25.22
2018-06-05T16:21:56.606Z,25.49
2018-06-05T16:24:25.115Z,25.24
2018-06-05T16:26:53.668Z,24.71
2018-06-05T16:29:22.243Z,24.60
2018-06-05T16:31:50.684Z,24.98
2018-06-05T16:34:19.237Z,25.36
2018-06-05T16:36:47.885Z,25.81
2018-06-05T16:39:16.331Z,25.61
2018-06-05T16:41:45.174Z,25.63
2018-06-05T16:44:13.728Z,26.01
2018-06-05T16:46:42.146Z,25.90
2018-06-05T16:49:11.041Z,25.71
2018-06-05T16:51:39.462Z,26.11
2018-06-05T16:54:07.860Z,25.87
2018-06-05T16:56:36.313Z,25.91
2018-06-05T16:59:05.468Z,26.32
2018-06-05T17:01:33.891Z,26.35
2018-06-05T17:04:02.397Z,26.03
2018-06-05T17:06:31.486Z,26.30
2018-06-05T17:08:59.970Z,26.09
2018-06-05T17:11:29.230Z,25.80
2018-06-05T17:13:58.410Z,26.15
2018-06-05T17:16:26.813Z,26.36
2018-06-05T17:18:55.305Z,26.72
2018-06-05T17:21:24.221Z,26.31
2018-06-05T17:23:52.654Z,26.92
2018-06-05T17:26:21.885Z,26.83
2018-06-05T17:28:50.986Z,27.11
2018-06-05T17:31:19.399Z,27.14
2018-06-05T17:33:47.842Z,27.30
2018-06-05T17:36:17.567Z,26.79
2018-06-05T17:38:45.995Z,27.29
2018-06-05T17:41:14.477Z,27.40
2018-06-05T17:43:43.194Z,27.56
2018-06-05T17:46:11.634Z,27.04
2018-06-05T17:48:40.069Z,27.43
2018-06-05T17:51:08.911Z,27.23
2018-06-05T17:53:37.333Z,27.43
2018-06-05T17:56:05.970Z,27.66
2018-06-05T17:58:35.837Z,28.41
2018-06-05T18:01:04.756Z,28.12
2018-06-05T18:03:33.233Z,28.07
2018-06-05T18:06:01.974Z,28.00
2018-06-05T18:08:30.518Z,28.26
2018-06-05T18:10:59.045Z,28.10
2018-06-05T18:13:27.857Z,28.45
2018-06-05T18:15:56.703Z,28.71
2018-06-05T18:18:25.161Z,28.90
2018-06-05T18:20:54.519Z,28.46
2018-06-05T18:23:22.977Z,28.70
2018-06-05T18:25:51.429Z,28.48
2018-06-05T18:28:20.673Z,28.63
2018-06-05T18:30:49.350Z,28.91
2018-06-05T18:33:17.807Z,29.10
2018-06-05T18:35:46.519Z,28.91
2018-06-05T18:38:14.947Z,29.30
2018-06-05T18:40:43.406Z,29.55
2018-06-05T18:43:12.989Z,29.54
2018-06-05T18:45:41.421Z,29.36
2018-06-05T18:48:10.033Z,29.30
2018-06-05T18:50:39.006Z,29.70
2018-06-05T18:53:07.651Z,30.27
2018-06-05T18:55:37.356Z,30.44
2018-06-05T18:58:06.225Z,30.33
2018-06-05T19:00:34.911Z,30.52
2018-06-05T19:03:03.606Z,30.09
2018-06-05T19:05:32.173Z,30.28
2018-06-05T19:08:00.887Z,30.54
2018-06-05T19:10:30.037Z,30.37
2018-06-05T19:12:59.373Z,30.62
2018-06-05T19:15:27.783Z,30.51
2018-06-05T19:17:56.383Z,30.55
2018-06-05T19:20:25.882Z,30.55
2018-06-05T19:22:54.303Z,31.13
2018-06-05T19:25:22.925Z,30.88
2018-06-05T19:27:51.878Z,31.51
2018-06-05T19:30:20.381Z,31.49
2018-06-05T19:32:48.990Z,31.63
2018-06-05T19:35:17.402Z,32.00
2018-06-05T19:37:46.005Z,31.96
2018-06-05T19:40:14.516Z,32.65
2018-06-05T19:42:43.088Z,32.30
2018-06-05T19:45:11.617Z,32.69
2018-06-05T19:47:40.053Z,33.01
2018-06-05T19:50:08.488Z,32.97
2018-06-05T19:52:37.294Z,33.24
2018-06-05T19:55:07.214Z,33.31
2018-06-05T19:57:37.498Z,33.67
2018-06-05T20:00:07.765Z,33.99
2018-06-05T20:02:36.561Z,33.82
2018-06-05T20:05:05.702Z,33.71
2018-06-05T20:07:34.586Z,33.57
2018-06-05T20:10:03.378Z,34.09
2018-06-05T20:12:33.230Z,34.08
2018-06-05T20:15:01.964Z,34.24
2018-06-05T20:17:31.003Z,34.36
2018-06-05T20:19:59.779Z,34.75
2018-06-05T20:22:28.439Z,34.41
2018-06-05T20:24:58.348Z,34.71
2018-06-05T20:27:27.433Z,35.01
2018-06-05T20:29:55.873Z,34.80
2018-06-05T20:32:25.315Z,35.06
2018-06-05T20:34:54.665Z,35.19
2018-06-05T20:37:23.214Z,35.36
2018-06-05T20:39:51.697Z,35.49
2018-06-05T20:42:20.640Z,35.77
2018-06-05T20:44:49.107Z,35.65
2018-06-05T20:47:17.593Z,35.95
2018-06-05T20:49:48.050Z,36.11
2018-06-05T20:52:16.532Z,36.29
2018-06-05T20:54:45.495Z,36.50
2018-06-05T20:57:17.805Z,36.90
2018-06-05T20:59:46.937Z,36.94
2018-06-05T21:02:16.361Z,36.69
2018-06-05T21:04:44.793Z,36.96
2018-06-05T21:07:13.657Z,37.17
2018-06-05T21:09:42.626Z,37.36
2018-06-05T21:12:11.180Z,37.62
2018-06-05T21:14:39.914Z,37.57
2018-06-05T21:17:08.477Z,37.71
2018-06-05T21:19:36.885Z,37.67
2018-06-05T21:22:05.801Z,38.13
2018-06-05T21:24:35.160Z,38.20
2018-06-05T21:27:03.609Z,38.13
2018-06-05T21:29:32.080Z,38.56
2018-06-05T21:32:00.803Z,38.89
2018-06-05T21:34:29.533Z,38.66
2018-06-05T21:36:58.285Z,38.81
2018-06-05T21:39:27.185Z,39.22
2018-06-05T21:41:55.977Z,39.20
2018-06-05T21:44:24.488Z,39.85
2018-06-05T21:46:53.223Z,39.77
2018-06-05T21:49:21.622Z,39.82
2018-06-05T21:51:50.061Z,39.57
2018-06-05T21:54:19.525Z,39.89
2018-06-05T21:56:47.938Z,40.24
2018-06-05T21:59:16.403Z,40.33
2018-06-05T22:01:45.330Z,40.49
2018-06-05T22:04:14.457Z,40.67
2018-06-05T22:06:43.161Z,40.95
2018-06-05T22:09:12.309Z,41.39
2018-06-05T22:11:40.713Z,41.48
2018-06-05T22:14:09.363Z,41.44
2018-06-05T22:16:38.355Z,41.88
2018-06-05T22:19:06.817Z,42.07
2018-06-05T22:21:35.421Z,42.13
2018-06-05T22:24:05.603Z,42.03
2018-06-05T22:26:34.052Z,42.12
2018-06-05T22:29:02.553Z,42.42
2018-06-05T22:31:31.393Z,42.95
2018-06-05T22:33:59.802Z,43.37
2018-06-05T22:36:28.257Z,43.77
2018-06-05T22:38:57.363Z,43.89
2018-06-05T22:41:25.783Z,44.06
2018-06-05T22:43:54.250Z,44.15
2018-06-05T22:46:23.966Z,44.35
2018-06-05T22:48:52.387Z,44.07
2018-06-05T22:51:20.833Z,44.17
2018-06-05T22:53:49.558Z,44.12
2018-06-05T22:56:18.117Z,43.91
2018-06-05T22:58:46.582Z,43.90
2018-06-05T23:01:15.461Z,43.70
2018-06-05T23:03:43.873Z,43.51
2018-06-05T23:06:12.538Z,43.45
2018-06-05T23:08:41.698Z,43.37
2018-06-05T23:11:10.327Z,43.44
2018-06-05T23:13:39.069Z,43.55
2018-06-05T23:16:07.670Z,43.75
2018-06-05T23:18:36.069Z,43.88
2018-06-05T23:21:04.521Z,44.21
2018-06-05T23:23:33.105Z,44.45
2018-06-05T23:26:01.653Z,44.60
2018-06-05T23:28:30.387Z,44.70
2018-06-05T23:30:58.865Z,45.03
2018-06-05T23:33:27.293Z,45.23
2018-06-05T23:35:55.757Z,45.45
2018-06-05T23:38:24.479Z,45.43
2018-06-05T23:40:53.067Z,45.58
2018-06-05T23:43:22.354Z,45.46
2018-06-05T23:45:51.653Z,45.51
2018-06-05T23:48:20.079Z,45.50
2018-06-05T23:50:48.734Z,45.10
2018-06-05T23:53:17.709Z,45.00
2018-06-05T23:55:46.125Z,44.43
2018-06-05T23:58:15.670Z,44.79
